createdAt,value
2016-12-27T00:00:01.109Z,39.68
2016-12-27T00:00:41.686Z,39.58
2016-12-27T00:01:22.257Z,39.77
2016-12-27T00:02:02.835Z,40.25
2016-12-27T00:02:43.411Z,39.97
2016-12-27T00:03:23.979Z,39.77
2016-12-27T00:04:04.556Z,39.68
2016-12-27T00:04:45.129Z,39.97
2016-12-27T00:05:25.696Z,40.23
2016-12-27T00:06:06.282Z,40.25
2016-12-27T00:06:46.856Z,40.16
2016-12-27T00:07:27.431Z,40.06
2016-12-27T00:08:08.007Z,39.87
2016-12-27T00:08:48.580Z,39.97
2016-12-27T00:09:29.148Z,39.58
2016-12-27T00:10:09.723Z,39.68
2016-12-27T00:10:50.310Z,39.58
2016-12-27T00:11:30.880Z,39.77
2016-12-27T00:12:11.453Z,39.77
2016-12-27T00:12:52.007Z,39.48
2016-12-27T00:13:32.582Z,39.68
2016-12-27T00:14:13.155Z,39.68
2016-12-27T00:14:53.737Z,39.68
2016-12-27T00:15:34.305Z,39.68
2016-12-27T00:16:14.876Z,39.77
2016-12-27T00:16:55.448Z,39.48
2016-12-27T00:17:36.040Z,40.42
2016-12-27T00:18:16.610Z,40.44
2016-12-27T00:18:57.186Z,40.14
2016-12-27T00:19:37.754Z,40.44
2016-12-27T00:20:18.334Z,40.06
2016-12-27T00:20:58.909Z,40.33
2016-12-27T00:21:39.479Z,40.35
2016-12-27T00:22:20.052Z,39.68
2016-12-27T00:23:00.629Z,39.68
2016-12-27T00:23:41.204Z,39.77
2016-12-27T00:24:21.785Z,40.06
2016-12-27T00:25:02.357Z,40.33
2016-12-27T00:25:42.934Z,40.25
2016-12-27T00:26:23.539Z,40.23
2016-12-27T00:27:04.132Z,40.06
2016-12-27T00:27:44.689Z,40.16
2016-12-27T00:28:25.285Z,40.33
2016-12-27T00:29:05.858Z,40.33
2016-12-27T00:29:46.430Z,40.33
2016-12-27T00:30:27.015Z,40.35
2016-12-27T00:31:07.596Z,40.16
2016-12-27T00:31:48.168Z,39.87
2016-12-27T00:32:28.740Z,40.06
2016-12-27T00:33:09.323Z,39.77
2016-12-27T00:33:49.892Z,39.58
2016-12-27T00:34:30.466Z,39.58
2016-12-27T00:35:11.042Z,40.04
2016-12-27T00:35:51.618Z,40.06
2016-12-27T00:36:32.189Z,39.75
2016-12-27T00:37:12.778Z,40.14
2016-12-27T00:37:53.352Z,40.06
2016-12-27T00:38:33.933Z,40.04
2016-12-27T00:39:14.509Z,39.68
2016-12-27T00:39:55.110Z,39.94
2016-12-27T00:40:35.645Z,39.68
2016-12-27T00:41:16.227Z,39.58
2016-12-27T00:41:56.803Z,39.68
2016-12-27T00:42:37.393Z,39.77
2016-12-27T00:43:17.960Z,39.77
2016-12-27T00:43:58.532Z,39.68
2016-12-27T00:44:39.105Z,39.68
2016-12-27T00:45:19.687Z,39.68
2016-12-27T00:46:00.259Z,39.58
2016-12-27T00:46:40.834Z,39.48
2016-12-27T00:47:21.404Z,39.48
2016-12-27T00:48:01.981Z,39.2
2016-12-27T00:48:42.566Z,39.39
2016-12-27T00:49:23.154Z,39.39
2016-12-27T00:50:03.725Z,39.77
2016-12-27T00:50:44.296Z,39.77
2016-12-27T00:51:24.874Z,39.65
2016-12-27T00:52:05.454Z,39.48
2016-12-27T00:52:46.021Z,39.77
2016-12-27T00:53:26.588Z,39.77
2016-12-27T00:54:07.167Z,39.68
2016-12-27T00:54:47.747Z,39.68
2016-12-27T00:55:28.333Z,39.58
2016-12-27T00:56:08.906Z,39.58
2016-12-27T00:56:49.475Z,39.58
2016-12-27T00:57:30.051Z,39.87
2016-12-27T00:58:10.628Z,39.77
2016-12-27T00:58:51.191Z,39.68
2016-12-27T00:59:31.759Z,39.65
2016-12-27T01:00:12.348Z,39.68
2016-12-27T01:00:52.927Z,39.68
2016-12-27T01:01:33.501Z,40.04
2016-12-27T01:02:14.074Z,39.58
2016-12-27T01:02:54.652Z,39.68
2016-12-27T01:03:35.227Z,39.94
2016-12-27T01:04:15.801Z,39.48
2016-12-27T01:04:56.373Z,39.48
2016-12-27T01:05:36.968Z,39.68
2016-12-27T01:06:17.580Z,39.58
2016-12-27T01:06:58.216Z,40.14
2016-12-27T01:07:38.796Z,40.14
2016-12-27T01:08:19.378Z,40.33
2016-12-27T01:08:59.942Z,40.23
2016-12-27T01:09:40.575Z,40.23
2016-12-27T01:10:21.146Z,40.16
2016-12-27T01:11:01.710Z,39.75
2016-12-27T01:11:42.276Z,39.68
2016-12-27T01:12:22.854Z,39.77
2016-12-27T01:13:03.427Z,39.77
2016-12-27T01:13:44.014Z,39.58
2016-12-27T01:14:24.591Z,39.68
2016-12-27T01:15:05.150Z,39.97
2016-12-27T01:15:45.741Z,39.97
2016-12-27T01:16:26.315Z,39.97
2016-12-27T01:17:06.882Z,39.58
2016-12-27T01:17:47.462Z,39.58
2016-12-27T01:18:28.033Z,39.68
2016-12-27T01:19:08.598Z,39.48
2016-12-27T01:19:49.177Z,39.48
2016-12-27T01:20:29.754Z,39.48
2016-12-27T01:21:10.335Z,39.77
2016-12-27T01:21:50.914Z,39.58
2016-12-27T01:22:31.510Z,39.77
2016-12-27T01:23:12.079Z,39.87
2016-12-27T01:23:52.655Z,39.58
2016-12-27T01:24:33.233Z,39.48
2016-12-27T01:25:13.806Z,39.68
2016-12-27T01:25:54.375Z,39.68
2016-12-27T01:26:34.946Z,39.68
2016-12-27T01:27:15.515Z,39.48
2016-12-27T01:27:56.093Z,39.58
2016-12-27T01:28:36.675Z,39.48
2016-12-27T01:29:17.270Z,39.39
2016-12-27T01:29:57.819Z,39.39
2016-12-27T01:30:38.384Z,39.39
2016-12-27T01:31:18.974Z,39.39
2016-12-27T01:31:59.551Z,39.77
2016-12-27T01:32:40.113Z,39.97
2016-12-27T01:33:20.681Z,39.77
2016-12-27T01:34:01.264Z,39.48
2016-12-27T01:34:41.840Z,39.48
2016-12-27T01:35:22.417Z,39.97
2016-12-27T01:36:02.986Z,39.97
2016-12-27T01:36:43.571Z,39.68
2016-12-27T01:37:24.151Z,39.97
2016-12-27T01:38:04.723Z,39.97
2016-12-27T01:38:45.287Z,39.48
2016-12-27T01:39:25.858Z,39.48
2016-12-27T01:40:06.432Z,39.77
2016-12-27T01:40:46.999Z,39.68
2016-12-27T01:41:27.563Z,39.58
2016-12-27T01:42:08.139Z,39.77
2016-12-27T01:42:48.707Z,39.48
2016-12-27T01:43:29.288Z,39.68
2016-12-27T01:44:09.866Z,39.58
2016-12-27T01:44:50.428Z,39.77
2016-12-27T01:45:30.997Z,39.48
2016-12-27T01:46:11.571Z,39.48
2016-12-27T01:46:52.139Z,39.48
2016-12-27T01:47:32.725Z,39.58
2016-12-27T01:48:13.295Z,39.58
2016-12-27T01:48:53.866Z,39.68
2016-12-27T01:49:34.442Z,39.58
2016-12-27T01:50:15.025Z,39.48
2016-12-27T01:50:55.603Z,39.39
2016-12-27T01:51:36.177Z,39.68
2016-12-27T01:52:16.762Z,39.48
2016-12-27T01:52:57.335Z,39.39
2016-12-27T01:53:37.912Z,38.91
2016-12-27T01:54:18.496Z,39.29
2016-12-27T01:54:59.067Z,39.1
2016-12-27T01:55:39.639Z,38.91
2016-12-27T01:56:20.212Z,39.39
2016-12-27T01:57:00.786Z,39.48
2016-12-27T01:57:41.362Z,39.48
2016-12-27T01:58:21.943Z,39.48
2016-12-27T01:59:02.519Z,39.29
2016-12-27T01:59:43.097Z,39.48
2016-12-27T02:00:23.661Z,39.2
2016-12-27T02:01:04.227Z,39.48
2016-12-27T02:01:44.807Z,39.58
2016-12-27T02:02:25.386Z,39.39
2016-12-27T02:03:05.977Z,39.39
2016-12-27T02:03:46.549Z,39.29
2016-12-27T02:04:27.129Z,39.29
2016-12-27T02:05:07.696Z,39.29
2016-12-27T02:05:48.276Z,39.48
2016-12-27T02:06:28.855Z,38.81
2016-12-27T02:07:09.436Z,39.1
2016-12-27T02:07:50.019Z,39.1
2016-12-27T02:08:30.587Z,39.01
2016-12-27T02:09:11.160Z,39.48
2016-12-27T02:09:51.726Z,39.48
2016-12-27T02:10:32.305Z,39.29
2016-12-27T02:11:12.879Z,39.68
2016-12-27T02:11:53.455Z,39.29
2016-12-27T02:12:34.019Z,39.01
2016-12-27T02:13:14.600Z,38.91
2016-12-27T02:13:55.171Z,39.29
2016-12-27T02:14:35.743Z,39.29
2016-12-27T02:15:16.318Z,39.58
2016-12-27T02:15:56.902Z,39.48
2016-12-27T02:16:37.470Z,38.91
2016-12-27T02:17:18.040Z,39.39
2016-12-27T02:17:58.614Z,38.81
2016-12-27T02:18:39.188Z,39.29
2016-12-27T02:19:19.754Z,39.01
2016-12-27T02:20:00.324Z,38.91
2016-12-27T02:20:40.930Z,39.1
2016-12-27T02:21:21.496Z,39.2
2016-12-27T02:22:02.087Z,39.1
2016-12-27T02:22:42.654Z,38.91
2016-12-27T02:23:23.233Z,39.01
2016-12-27T02:24:03.811Z,39.1
2016-12-27T02:24:44.379Z,39.29
2016-12-27T02:25:24.970Z,39.1
2016-12-27T02:26:05.539Z,39.1
2016-12-27T02:26:46.114Z,39.39
2016-12-27T02:27:26.698Z,39.48
2016-12-27T02:28:07.279Z,39.58
2016-12-27T02:28:47.843Z,39.2
2016-12-27T02:29:28.410Z,39.1
2016-12-27T02:30:08.983Z,39.01
2016-12-27T02:30:49.564Z,39.1
2016-12-27T02:31:30.147Z,39.01
2016-12-27T02:32:10.720Z,39.1
2016-12-27T02:32:51.294Z,39.1
2016-12-27T02:33:31.868Z,39.48
2016-12-27T02:34:12.444Z,39.39
2016-12-27T02:34:53.018Z,39.29
2016-12-27T02:35:33.590Z,39.1
2016-12-27T02:36:14.154Z,39.01
2016-12-27T02:36:54.727Z,39.2
2016-12-27T02:37:35.299Z,39.29
2016-12-27T02:38:15.884Z,39.1
2016-12-27T02:38:56.463Z,39.01
2016-12-27T02:39:37.046Z,39.29
2016-12-27T02:40:17.623Z,38.91
2016-12-27T02:40:58.206Z,39.2
2016-12-27T02:41:38.777Z,39.2
2016-12-27T02:42:19.349Z,39.01
2016-12-27T02:42:59.915Z,39.1
2016-12-27T02:43:40.479Z,39.2
2016-12-27T02:44:21.055Z,39.39
2016-12-27T02:45:01.637Z,39.48
2016-12-27T02:45:42.212Z,39.39
2016-12-27T02:46:22.782Z,39.58
2016-12-27T02:47:03.354Z,39.29
2016-12-27T02:47:43.925Z,39.48
2016-12-27T02:48:24.506Z,39.2
2016-12-27T02:49:05.084Z,39.29
2016-12-27T02:49:45.655Z,39.29
2016-12-27T02:50:26.225Z,39.48
2016-12-27T02:51:06.800Z,39.29
2016-12-27T02:51:47.371Z,39.01
2016-12-27T02:52:27.942Z,38.81
2016-12-27T02:53:08.534Z,38.91
2016-12-27T02:53:49.109Z,39.2
2016-12-27T02:54:29.682Z,39.39
2016-12-27T02:55:10.246Z,39.39
2016-12-27T02:55:50.822Z,39.2
2016-12-27T02:56:31.392Z,39.1
2016-12-27T02:57:11.966Z,39.2
2016-12-27T02:57:52.535Z,39.29
2016-12-27T02:58:33.111Z,39.68
2016-12-27T02:59:13.685Z,39.29
2016-12-27T02:59:54.244Z,39.1
2016-12-27T03:00:34.819Z,39.2
2016-12-27T03:01:15.392Z,39.29
2016-12-27T03:01:55.969Z,39.2
2016-12-27T03:02:36.540Z,39.1
2016-12-27T03:03:17.116Z,39.1
2016-12-27T03:03:57.693Z,38.91
2016-12-27T03:04:38.267Z,39.2
2016-12-27T03:05:18.839Z,39.01
2016-12-27T03:05:59.419Z,39.2
2016-12-27T03:06:39.999Z,39.01
2016-12-27T03:07:20.560Z,39.1
2016-12-27T03:08:01.147Z,39.01
2016-12-27T03:08:41.722Z,38.91
2016-12-27T03:09:22.305Z,38.72
2016-12-27T03:10:02.882Z,38.81
2016-12-27T03:10:43.463Z,38.72
2016-12-27T03:11:24.026Z,39.1
2016-12-27T03:12:04.594Z,39.2
2016-12-27T03:12:45.166Z,38.81
2016-12-27T03:13:25.737Z,38.91
2016-12-27T03:14:06.312Z,38.91
2016-12-27T03:14:46.885Z,39.01
2016-12-27T03:15:27.455Z,38.91
2016-12-27T03:16:08.076Z,38.72
2016-12-27T03:16:48.655Z,39.01
2016-12-27T03:17:29.224Z,38.72
2016-12-27T03:18:09.796Z,38.72
2016-12-27T03:18:50.366Z,38.91
2016-12-27T03:19:30.938Z,38.45
2016-12-27T03:20:11.507Z,38.43
2016-12-27T03:20:52.091Z,38.72
2016-12-27T03:21:32.666Z,38.53
2016-12-27T03:22:13.245Z,39.01
2016-12-27T03:22:53.818Z,38.72
2016-12-27T03:23:34.393Z,38.53
2016-12-27T03:24:14.969Z,38.54
2016-12-27T03:24:55.553Z,38.43
2016-12-27T03:25:36.131Z,38.34
2016-12-27T03:26:16.708Z,38.81
2016-12-27T03:26:57.294Z,38.81
2016-12-27T03:27:37.859Z,38.53
2016-12-27T03:28:18.434Z,38.43
2016-12-27T03:28:58.993Z,38.34
2016-12-27T03:29:39.575Z,38.81
2016-12-27T03:30:20.146Z,38.72
2016-12-27T03:31:00.711Z,39.01
2016-12-27T03:31:41.293Z,39.2
2016-12-27T03:32:21.870Z,39.1
2016-12-27T03:33:02.438Z,38.62
2016-12-27T03:33:43.025Z,38.91
2016-12-27T03:34:23.606Z,38.91
2016-12-27T03:35:04.171Z,39.1
2016-12-27T03:35:44.752Z,39.01
2016-12-27T03:36:25.314Z,38.91
2016-12-27T03:37:05.886Z,39.01
2016-12-27T03:37:46.457Z,39.1
2016-12-27T03:38:27.039Z,39.01
2016-12-27T03:39:07.614Z,38.81
2016-12-27T03:39:48.182Z,38.91
2016-12-27T03:40:28.757Z,39.1
2016-12-27T03:41:09.328Z,38.81
2016-12-27T03:41:49.913Z,39.01
2016-12-27T03:42:30.489Z,38.72
2016-12-27T03:43:11.061Z,39.1
2016-12-27T03:43:51.638Z,38.91
2016-12-27T03:44:32.210Z,39.29
2016-12-27T03:45:12.782Z,39.1
2016-12-27T03:45:53.356Z,39.1
2016-12-27T03:46:33.915Z,39.01
2016-12-27T03:47:14.491Z,39.01
2016-12-27T03:47:55.060Z,38.72
2016-12-27T03:48:35.641Z,38.72
2016-12-27T03:49:16.213Z,39.01
2016-12-27T03:49:56.789Z,38.91
2016-12-27T03:50:37.364Z,38.74
2016-12-27T03:51:17.944Z,38.83
2016-12-27T03:51:58.519Z,38.72
2016-12-27T03:52:39.098Z,39.01
2016-12-27T03:53:19.669Z,38.81
2016-12-27T03:54:00.246Z,38.62
2016-12-27T03:54:40.813Z,39.01
2016-12-27T03:55:21.378Z,38.72
2016-12-27T03:56:01.964Z,39.1
2016-12-27T03:56:42.539Z,39.1
2016-12-27T03:57:23.117Z,39.01
2016-12-27T03:58:03.690Z,39.1
2016-12-27T03:58:44.253Z,39.1
2016-12-27T03:59:24.829Z,38.81
2016-12-27T04:00:05.389Z,38.81
2016-12-27T04:00:45.969Z,39.2
2016-12-27T04:01:26.541Z,39.01
2016-12-27T04:02:07.109Z,39.2
2016-12-27T04:02:47.685Z,39.1
2016-12-27T04:03:28.250Z,39.01
2016-12-27T04:04:08.838Z,39.1
2016-12-27T04:04:49.408Z,38.81
2016-12-27T04:05:29.981Z,38.81
2016-12-27T04:06:10.553Z,38.91
2016-12-27T04:06:51.140Z,39.01
2016-12-27T04:07:31.740Z,38.91
2016-12-27T04:08:12.308Z,38.91
2016-12-27T04:08:52.881Z,39.1
2016-12-27T04:09:33.449Z,38.72
2016-12-27T04:10:14.023Z,39.1
2016-12-27T04:10:54.604Z,39.01
2016-12-27T04:11:35.176Z,38.91
2016-12-27T04:12:15.750Z,39.01
2016-12-27T04:12:56.326Z,39.01
2016-12-27T04:13:36.901Z,39.1
2016-12-27T04:14:17.464Z,39.1
2016-12-27T04:14:58.051Z,38.72
2016-12-27T04:15:38.619Z,39.01
2016-12-27T04:16:19.197Z,39.1
2016-12-27T04:16:59.770Z,39.1
2016-12-27T04:17:40.343Z,39.1
2016-12-27T04:18:20.924Z,39.2
2016-12-27T04:19:01.490Z,39.39
2016-12-27T04:19:42.071Z,39.2
2016-12-27T04:20:22.648Z,39.2
2016-12-27T04:21:03.220Z,39.2
2016-12-27T04:21:43.801Z,39.29
2016-12-27T04:22:24.386Z,39.29
2016-12-27T04:23:04.937Z,39.58
2016-12-27T04:23:45.503Z,39.58
2016-12-27T04:24:26.080Z,39.39
2016-12-27T04:25:06.644Z,39.48
2016-12-27T04:25:47.220Z,39.68
2016-12-27T04:26:27.789Z,39.68
2016-12-27T04:27:08.377Z,39.68
2016-12-27T04:27:48.943Z,39.48
2016-12-27T04:28:29.512Z,39.87
2016-12-27T04:29:10.090Z,39.68
2016-12-27T04:29:50.680Z,39.77
2016-12-27T04:30:31.252Z,39.68
2016-12-27T04:31:11.817Z,39.87
2016-12-27T04:31:52.393Z,39.48
2016-12-27T04:32:32.965Z,39.58
2016-12-27T04:33:13.540Z,39.48
2016-12-27T04:33:54.105Z,39.77
2016-12-27T04:34:34.669Z,39.48
2016-12-27T04:35:15.244Z,39.77
2016-12-27T04:35:55.824Z,39.77
2016-12-27T04:36:36.392Z,39.48
2016-12-27T04:37:16.972Z,39.68
2016-12-27T04:37:57.548Z,39.68
2016-12-27T04:38:38.119Z,39.58
2016-12-27T04:39:18.694Z,39.58
2016-12-27T04:39:59.278Z,39.87
2016-12-27T04:40:39.850Z,39.87
2016-12-27T04:41:20.415Z,39.77
2016-12-27T04:42:01.009Z,39.68
2016-12-27T04:42:41.588Z,39.77
2016-12-27T04:43:22.166Z,39.48
2016-12-27T04:44:02.747Z,39.77
2016-12-27T04:44:43.320Z,39.68
2016-12-27T04:45:23.900Z,40.16
2016-12-27T04:46:04.473Z,40.35
2016-12-27T04:46:45.064Z,40.16
2016-12-27T04:47:25.619Z,40.25
2016-12-27T04:48:06.209Z,40.35
2016-12-27T04:48:46.777Z,40.06
2016-12-27T04:49:27.363Z,39.58
2016-12-27T04:50:07.933Z,40.16
2016-12-27T04:50:48.504Z,40.16
2016-12-27T04:51:29.071Z,40.25
2016-12-27T04:52:09.661Z,39.87
2016-12-27T04:52:50.235Z,39.68
2016-12-27T04:53:30.810Z,39.87
2016-12-27T04:54:11.388Z,40.25
2016-12-27T04:54:51.967Z,40.35
2016-12-27T04:55:32.538Z,40.35
2016-12-27T04:56:13.091Z,39.68
2016-12-27T04:56:53.683Z,39.77
2016-12-27T04:57:34.261Z,39.48
2016-12-27T04:58:14.835Z,39.68
2016-12-27T04:58:55.407Z,39.68
2016-12-27T04:59:35.973Z,39.97
2016-12-27T05:00:16.557Z,39.77
2016-12-27T05:00:57.128Z,39.97
2016-12-27T05:01:37.713Z,39.97
2016-12-27T05:02:18.285Z,40.16
2016-12-27T05:02:58.863Z,40.35
2016-12-27T05:03:39.431Z,40.06
2016-12-27T05:04:20.014Z,39.77
2016-12-27T05:05:00.588Z,39.68
2016-12-27T05:05:41.161Z,39.48
2016-12-27T05:06:21.749Z,39.77
2016-12-27T05:07:02.320Z,39.87
2016-12-27T05:07:42.891Z,39.97
2016-12-27T05:08:23.472Z,39.68
2016-12-27T05:09:04.043Z,39.87
2016-12-27T05:09:44.625Z,39.87
2016-12-27T05:10:25.212Z,39.77
2016-12-27T05:11:05.774Z,39.68
2016-12-27T05:11:46.357Z,39.48
2016-12-27T05:12:26.936Z,39.68
2016-12-27T05:13:07.514Z,39.87
2016-12-27T05:13:48.084Z,39.68
2016-12-27T05:14:28.661Z,39.68
2016-12-27T05:15:09.231Z,39.77
2016-12-27T05:15:49.806Z,40.25
2016-12-27T05:16:30.379Z,39.77
2016-12-27T05:17:10.953Z,39.58
2016-12-27T05:17:51.528Z,39.68
2016-12-27T05:18:32.101Z,39.29
2016-12-27T05:19:12.679Z,39.77
2016-12-27T05:19:53.252Z,39.77
2016-12-27T05:20:33.821Z,39.48
2016-12-27T05:21:14.388Z,39.58
2016-12-27T05:21:54.969Z,39.68
2016-12-27T05:22:35.544Z,39.77
2016-12-27T05:23:16.121Z,39.68
2016-12-27T05:23:56.690Z,39.58
2016-12-27T05:24:37.267Z,39.77
2016-12-27T05:25:17.848Z,39.87
2016-12-27T05:25:58.426Z,39.48
2016-12-27T05:26:38.997Z,39.48
2016-12-27T05:27:19.575Z,39.77
2016-12-27T05:28:00.160Z,39.68
2016-12-27T05:28:40.726Z,39.68
2016-12-27T05:29:21.296Z,39.68
2016-12-27T05:30:01.861Z,39.97
2016-12-27T05:30:42.446Z,40.06
2016-12-27T05:31:23.017Z,40.16
2016-12-27T05:32:03.588Z,40.06
2016-12-27T05:32:44.164Z,40.06
2016-12-27T05:33:24.741Z,39.77
2016-12-27T05:34:05.318Z,39.77
2016-12-27T05:34:45.882Z,39.87
2016-12-27T05:35:26.458Z,39.68
2016-12-27T05:36:07.030Z,39.58
2016-12-27T05:36:47.618Z,39.68
2016-12-27T05:37:28.213Z,39.58
2016-12-27T05:38:08.804Z,39.68
2016-12-27T05:38:49.384Z,39.97
2016-12-27T05:39:29.950Z,39.48
2016-12-27T05:40:10.525Z,39.77
2016-12-27T05:40:51.100Z,39.77
2016-12-27T05:41:31.677Z,39.68
2016-12-27T05:42:12.250Z,39.58
2016-12-27T05:42:52.821Z,39.58
2016-12-27T05:43:33.406Z,39.77
2016-12-27T05:44:13.977Z,39.58
2016-12-27T05:44:54.548Z,39.58
2016-12-27T05:45:35.124Z,39.87
2016-12-27T05:46:15.699Z,39.48
2016-12-27T05:46:56.273Z,39.48
2016-12-27T05:47:36.846Z,39.2
2016-12-27T05:48:17.416Z,39.58
2016-12-27T05:48:57.993Z,39.77
2016-12-27T05:49:38.557Z,39.48
2016-12-27T05:50:19.132Z,39.68
2016-12-27T05:50:59.711Z,39.97
2016-12-27T05:51:40.281Z,39.48
2016-12-27T05:52:20.850Z,39.68
2016-12-27T05:53:01.423Z,39.58
2016-12-27T05:53:41.997Z,39.68
2016-12-27T05:54:22.560Z,39.97
2016-12-27T05:55:03.138Z,39.68
2016-12-27T05:55:43.714Z,39.77
2016-12-27T05:56:24.302Z,39.68
2016-12-27T05:57:04.879Z,39.68
2016-12-27T05:57:45.451Z,39.77
2016-12-27T05:58:26.028Z,39.68
2016-12-27T05:59:06.595Z,39.48
2016-12-27T05:59:47.181Z,39.87
2016-12-27T06:00:27.743Z,39.77
2016-12-27T06:01:08.314Z,39.68
2016-12-27T06:01:48.886Z,39.87
2016-12-27T06:02:29.463Z,39.68
2016-12-27T06:03:10.056Z,39.68
2016-12-27T06:03:50.633Z,39.97
2016-12-27T06:04:31.207Z,39.58
2016-12-27T06:05:11.784Z,40.35
2016-12-27T06:05:52.357Z,40.35
2016-12-27T06:06:32.937Z,40.44
2016-12-27T06:07:13.508Z,40.35
2016-12-27T06:07:54.093Z,40.44
2016-12-27T06:08:34.660Z,40.06
2016-12-27T06:09:15.236Z,40.25
2016-12-27T06:09:55.825Z,40.25
2016-12-27T06:10:36.398Z,40.25
2016-12-27T06:11:16.965Z,40.25
2016-12-27T06:11:57.528Z,40.06
2016-12-27T06:12:38.105Z,39.97
2016-12-27T06:13:18.687Z,39.97
2016-12-27T06:13:59.251Z,39.48
2016-12-27T06:14:39.821Z,39.48
2016-12-27T06:15:20.405Z,39.68
2016-12-27T06:16:00.981Z,39.87
2016-12-27T06:16:41.560Z,39.87
2016-12-27T06:17:22.129Z,40.16
2016-12-27T06:18:02.706Z,39.77
2016-12-27T06:18:43.282Z,40.25
2016-12-27T06:19:23.864Z,40.25
2016-12-27T06:20:04.429Z,39.97
2016-12-27T06:20:44.999Z,40.44
2016-12-27T06:21:25.586Z,40.35
2016-12-27T06:22:06.162Z,40.35
2016-12-27T06:22:46.733Z,40.25
2016-12-27T06:23:27.306Z,40.44
2016-12-27T06:24:07.884Z,40.06
2016-12-27T06:24:48.458Z,40.16
2016-12-27T06:25:29.027Z,40.35
2016-12-27T06:26:09.608Z,40.06
2016-12-27T06:26:50.186Z,40.25
2016-12-27T06:27:30.745Z,40.35
2016-12-27T06:28:11.328Z,40.16
2016-12-27T06:28:51.925Z,40.25
2016-12-27T06:29:32.504Z,40.25
2016-12-27T06:30:13.084Z,40.25
2016-12-27T06:30:53.654Z,40.25
2016-12-27T06:31:34.225Z,40.16
2016-12-27T06:32:14.786Z,40.25
2016-12-27T06:32:55.375Z,40.25
2016-12-27T06:33:35.941Z,40.35
2016-12-27T06:34:16.508Z,39.68
2016-12-27T06:34:57.068Z,40.16
2016-12-27T06:35:37.706Z,40.25
2016-12-27T06:36:18.275Z,40.25
2016-12-27T06:36:58.849Z,40.16
2016-12-27T06:37:39.432Z,40.44
2016-12-27T06:38:19.993Z,40.25
2016-12-27T06:39:00.573Z,40.25
2016-12-27T06:39:41.149Z,40.25
2016-12-27T06:40:21.727Z,40.25
2016-12-27T06:41:02.301Z,40.16
2016-12-27T06:41:42.863Z,39.87
2016-12-27T06:42:23.444Z,40.73
2016-12-27T06:43:04.018Z,40.54
2016-12-27T06:43:44.603Z,40.44
2016-12-27T06:44:25.174Z,40.06
2016-12-27T06:45:05.750Z,40.06
2016-12-27T06:45:46.324Z,40.25
2016-12-27T06:46:26.899Z,40.35
2016-12-27T06:47:07.486Z,40.35
2016-12-27T06:47:48.054Z,40.16
2016-12-27T06:48:28.635Z,40.06
2016-12-27T06:49:09.215Z,40.25
2016-12-27T06:49:49.778Z,40.44
2016-12-27T06:50:30.352Z,39.87
2016-12-27T06:51:10.931Z,40.06
2016-12-27T06:51:51.499Z,40.25
2016-12-27T06:52:32.071Z,40.35
2016-12-27T06:53:12.644Z,40.25
2016-12-27T06:53:53.210Z,40.35
2016-12-27T06:54:33.790Z,40.25
2016-12-27T06:55:14.369Z,40.25
2016-12-27T06:55:54.934Z,40.06
2016-12-27T06:56:35.506Z,39.87
2016-12-27T06:57:16.080Z,40.25
2016-12-27T06:57:56.664Z,40.06
2016-12-27T06:58:37.240Z,40.25
2016-12-27T06:59:17.811Z,40.25
2016-12-27T06:59:58.388Z,40.16
2016-12-27T07:00:38.960Z,40.25
2016-12-27T07:01:19.548Z,40.25
2016-12-27T07:02:00.124Z,40.06
2016-12-27T07:02:40.701Z,40.06
2016-12-27T07:03:21.275Z,40.35
2016-12-27T07:04:01.848Z,40.06
2016-12-27T07:04:42.419Z,40.25
2016-12-27T07:05:22.998Z,40.25
2016-12-27T07:06:03.577Z,40.35
2016-12-27T07:06:44.163Z,40.06
2016-12-27T07:07:24.728Z,40.44
2016-12-27T07:08:05.302Z,40.33
2016-12-27T07:08:45.865Z,40.83
2016-12-27T07:09:26.444Z,40.25
2016-12-27T07:10:07.008Z,40.16
2016-12-27T07:10:47.587Z,40.16
2016-12-27T07:11:28.161Z,40.25
2016-12-27T07:12:08.740Z,40.35
2016-12-27T07:12:49.313Z,40.35
2016-12-27T07:13:29.891Z,40.35
2016-12-27T07:14:10.473Z,40.35
2016-12-27T07:14:51.053Z,40.25
2016-12-27T07:15:31.619Z,40.25
2016-12-27T07:16:12.191Z,40.25
2016-12-27T07:16:52.764Z,40.16
2016-12-27T07:17:33.330Z,40.16
2016-12-27T07:18:13.898Z,40.25
2016-12-27T07:18:54.471Z,40.16
2016-12-27T07:19:35.047Z,40.25
2016-12-27T07:20:15.628Z,40.35
2016-12-27T07:20:56.206Z,40.35
2016-12-27T07:21:36.773Z,40.25
2016-12-27T07:22:17.345Z,40.16
2016-12-27T07:22:57.906Z,40.16
2016-12-27T07:23:38.485Z,40.25
2016-12-27T07:24:19.056Z,40.25
2016-12-27T07:24:59.627Z,40.16
2016-12-27T07:25:40.186Z,40.16
2016-12-27T07:26:20.754Z,40.35
2016-12-27T07:27:01.356Z,40.35
2016-12-27T07:27:41.932Z,40.25
2016-12-27T07:28:22.504Z,40.25
2016-12-27T07:29:03.075Z,40.16
2016-12-27T07:29:43.648Z,40.16
2016-12-27T07:30:24.221Z,40.25
2016-12-27T07:31:04.786Z,40.16
2016-12-27T07:31:45.362Z,40.35
2016-12-27T07:32:25.938Z,40.54
2016-12-27T07:33:06.518Z,40.35
2016-12-27T07:33:47.090Z,40.25
2016-12-27T07:34:27.664Z,40.35
2016-12-27T07:35:08.234Z,40.25
2016-12-27T07:35:48.829Z,40.44
2016-12-27T07:36:29.401Z,40.54
2016-12-27T07:37:09.966Z,40.44
2016-12-27T07:37:50.548Z,40.44
2016-12-27T07:38:31.123Z,40.73
2016-12-27T07:39:11.694Z,40.35
2016-12-27T07:39:52.268Z,40.64
2016-12-27T07:40:32.842Z,40.44
2016-12-27T07:41:13.412Z,40.73
2016-12-27T07:41:53.997Z,40.64
2016-12-27T07:42:34.555Z,40.64
2016-12-27T07:43:15.127Z,40.73
2016-12-27T07:43:55.706Z,40.54
2016-12-27T07:44:36.281Z,40.64
2016-12-27T07:45:16.851Z,40.73
2016-12-27T07:45:57.429Z,40.73
2016-12-27T07:46:37.996Z,40.54
2016-12-27T07:47:18.567Z,40.73
2016-12-27T07:47:59.144Z,40.54
2016-12-27T07:48:39.711Z,40.64
2016-12-27T07:49:20.298Z,40.35
2016-12-27T07:50:00.877Z,40.06
2016-12-27T07:50:41.462Z,40.54
2016-12-27T07:51:22.036Z,40.64
2016-12-27T07:52:02.603Z,40.64
2016-12-27T07:52:43.185Z,40.35
2016-12-27T07:53:23.766Z,40.35
2016-12-27T07:54:04.341Z,40.25
2016-12-27T07:54:44.918Z,40.16
2016-12-27T07:55:25.489Z,39.97
2016-12-27T07:56:06.060Z,39.87
2016-12-27T07:56:46.626Z,39.48
2016-12-27T07:57:27.196Z,39.68
2016-12-27T07:58:07.775Z,39.87
2016-12-27T07:58:48.348Z,39.68
2016-12-27T07:59:28.923Z,39.87
2016-12-27T08:00:09.484Z,39.68
2016-12-27T08:00:50.050Z,39.58
2016-12-27T08:01:30.626Z,39.58
2016-12-27T08:02:11.205Z,39.58
2016-12-27T08:02:51.784Z,39.87
2016-12-27T08:03:32.339Z,39.77
2016-12-27T08:04:12.912Z,39.77
2016-12-27T08:04:53.483Z,39.77
2016-12-27T08:05:34.069Z,39.58
2016-12-27T08:06:14.648Z,39.48
2016-12-27T08:06:55.207Z,39.77
2016-12-27T08:07:35.777Z,39.58
2016-12-27T08:08:16.354Z,39.48
2016-12-27T08:08:56.933Z,39.48
2016-12-27T08:09:37.493Z,39.77
2016-12-27T08:10:18.057Z,39.87
2016-12-27T08:10:58.629Z,39.77
2016-12-27T08:11:39.200Z,39.58
2016-12-27T08:12:19.780Z,39.39
2016-12-27T08:13:00.339Z,39.48
2016-12-27T08:13:40.911Z,39.41
2016-12-27T08:14:21.464Z,38.91
2016-12-27T08:15:02.038Z,39.1
2016-12-27T08:15:42.614Z,39.01
2016-12-27T08:16:23.181Z,39.1
2016-12-27T08:17:03.759Z,39.12
2016-12-27T08:17:44.338Z,39.12
2016-12-27T08:18:24.916Z,39.03
2016-12-27T08:19:05.496Z,38.83
2016-12-27T08:19:46.067Z,39.12
2016-12-27T08:20:26.662Z,39.01
2016-12-27T08:21:07.244Z,39.1
2016-12-27T08:21:47.812Z,39.12
2016-12-27T08:22:28.376Z,39.31
2016-12-27T08:23:08.951Z,39.01
2016-12-27T08:23:49.519Z,38.91
2016-12-27T08:24:30.099Z,38.91
2016-12-27T08:25:10.677Z,39.29
2016-12-27T08:25:51.248Z,39.29
2016-12-27T08:26:31.837Z,39.1
2016-12-27T08:27:12.414Z,39.12
2016-12-27T08:27:52.984Z,39.1
2016-12-27T08:28:33.551Z,38.74
2016-12-27T08:29:14.126Z,38.93
2016-12-27T08:29:54.716Z,38.74
2016-12-27T08:30:35.286Z,38.83
2016-12-27T08:31:15.861Z,39.12
2016-12-27T08:31:56.430Z,38.83
2016-12-27T08:32:37.002Z,38.93
2016-12-27T08:33:17.568Z,38.83
2016-12-27T08:33:58.145Z,38.74
2016-12-27T08:34:38.722Z,38.74
2016-12-27T08:35:19.303Z,38.74
2016-12-27T08:35:59.875Z,38.93
2016-12-27T08:36:40.422Z,38.93
2016-12-27T08:37:20.985Z,38.74
2016-12-27T08:38:01.558Z,38.83
2016-12-27T08:38:42.138Z,38.83
2016-12-27T08:39:22.715Z,38.64
2016-12-27T08:40:03.277Z,38.83
2016-12-27T08:40:43.862Z,38.83
2016-12-27T08:41:24.442Z,38.74
2016-12-27T08:42:05.029Z,38.74
2016-12-27T08:42:45.595Z,38.74
2016-12-27T08:43:26.188Z,39.03